EGNX/EMA METAR and TAF weather

Enter ICAO airport designator
Station Type Date Time Source
EGNX METAR 2021/01/27 14:20 UTC NOAA

EGNX 271420Z 24004KT CAVOK 09/07 Q1010


Station Type Date Time Source
EGNX Decoded METAR 2021/01/27 14:20 UTC NOAA

East Midlands, United Kingdom (EGNX) 52-50N 001-20W
Jan 27, 2021 - 09:20 AM EST / 2021.01.27 1420 UTC
Wind: from the WSW (240 degrees) at 5 MPH (4 KT):0
Visibility: greater than 7 mile(s):0
Temperature: 48 F (9 C)
Dew Point: 44 F (7 C)
Relative Humidity: 87%
Pressure (altimeter): 29.83 in. Hg (1010 hPa)
ob: EGNX 271420Z 24004KT CAVOK 09/07 Q1010
cycle: 14

Station Type Date Time Source
EGNX TAF 2021/01/27 12:15 UTC NOAA

TAF EGNX 271057Z 2712/2812 24005KT 9999 SCT015 PROB30
TEMPO 2712/2716 BKN008
BECMG 2718/2721 BKN005
TEMPO 2721/2807 4000 RA BKN003 PROB30 2722/2804 0300 FG BKN001
BECMG 2800/2803 10010KT PROB40
TEMPO 2800/2805 +RA
BECMG 2804/2807 25012KT
BECMG 2807/2810 FEW040 PROB30
TEMPO 2808/2812 26015G27KT

Example: see airport list